EGPA

Kirkwall Airport

Orkney Islands, United Kingdom
METAR EGPA 231350Z 18014KT 9999 FEW021 05/01 Q1020
Observed Flight Rules
Feb-23 @ 13:50 UTC (35 minutes ago) Visual Flight Rules
Wind Visibility Clouds
180° at 14 knots 10,000+ meters
  • Few at 2,100' AGL
Temperatures Readings
Current 5°C / 41°F
Dewpoint 1°C / 34°F
Humidity 76%
Altimeter 30.12" Hg
Pressure 1020 hPa
Elevation 21
METAR EGPA 231350Z 18014KT 9999 FEW021 05/01 Q1020
Observed Flight Rules
Feb-23 @ 13:50 UTC
(35 minutes ago)
VFR
Wind Visibility
180° at 14 knots 10,000+ meters
Clouds
  • Few at 2,100' AGL
Temperature Dewpoint
5°C / 41°F 1°C / 34°F
Humidity Altimeter Pressure
76% 30.12" Hg 1020 hPa